Time;durP1;ratioP1;P1;durP2;ratioP2;P2;SDS_P1;SDS_P2;PMS_P1;PMS_P2;Temp;Humidity;BMP_temperature;BMP_pressure;BME280_temperature;BME280_humidity;BME280_pressure;Samples;Min_cycle;Max_cycle;Signal;HPM_P1;HPM_P2
2024/03/04 00:00:52;;;;;;;22.23;10.70;;;6.30;99.90;;;;;;4188512;28;20209;-73
2024/03/04 00:02:54;;;;;;;25.43;11.73;;;6.30;99.90;;;;;;4184417;28;20488;-73
2024/03/04 00:04:56;;;;;;;23.23;11.47;;;6.20;99.90;;;;;;4180382;28;20246;-73
2024/03/04 00:06:58;;;;;;;23.70;11.23;;;6.20;99.90;;;;;;4183834;28;20321;-74
2024/03/04 00:08:59;;;;;;;26.07;11.70;;;6.10;99.90;;;;;;4184122;28;20206;-73
2024/03/04 00:11:02;;;;;;;23.50;11.03;;;6.10;99.90;;;;;;4182121;28;20470;-75
2024/03/04 00:13:03;;;;;;;23.23;11.00;;;6.10;99.90;;;;;;4186739;28;20613;-74
2024/03/04 00:15:06;;;;;;;21.80;10.90;;;6.10;99.90;;;;;;4183288;28;20262;-74
2024/03/04 00:17:09;;;;;;;24.57;11.37;;;6.00;99.90;;;;;;4184946;28;20663;-73
2024/03/04 00:19:09;;;;;;;25.47;12.03;;;6.00;99.90;;;;;;4185690;28;20723;-73
2024/03/04 00:21:11;;;;;;;24.83;11.53;;;6.00;99.90;;;;;;4185696;28;20199;-74
2024/03/04 00:23:12;;;;;;;25.30;11.23;;;6.00;99.90;;;;;;4187684;28;20651;-75
2024/03/04 00:25:15;;;;;;;24.70;11.97;;;5.90;99.90;;;;;;4182362;28;20225;-74
2024/03/04 00:27:20;;;;;;;21.03;11.03;;;5.90;99.90;;;;;;4179347;28;20242;-74
2024/03/04 00:29:22;;;;;;;23.13;11.27;;;5.90;99.90;;;;;;4183011;28;20449;-75
2024/03/04 00:31:24;;;;;;;25.43;11.87;;;5.80;99.90;;;;;;4182638;28;20453;-73
2024/03/04 00:33:26;;;;;;;27.67;11.50;;;5.80;99.90;;;;;;4182353;28;20225;-73
2024/03/04 00:35:28;;;;;;;25.93;12.00;;;5.80;99.90;;;;;;4184818;28;20230;-74
2024/03/04 00:37:29;;;;;;;24.20;12.33;;;5.80;99.90;;;;;;4180829;28;20541;-73
2024/03/04 00:39:31;;;;;;;20.80;10.33;;;5.80;99.90;;;;;;4186873;28;20500;-72
2024/03/04 00:41:33;;;;;;;24.57;11.73;;;5.80;99.90;;;;;;4182380;28;21005;-73
2024/03/04 00:43:37;;;;;;;22.70;11.87;;;5.80;99.90;;;;;;4186519;28;20708;-72
2024/03/04 00:45:39;;;;;;;25.53;12.00;;;5.70;99.90;;;;;;4185818;28;20591;-73
2024/03/04 00:47:40;;;;;;;24.67;11.60;;;5.70;99.90;;;;;;4185815;28;20854;-73
2024/03/04 00:49:41;;;;;;;24.87;12.27;;;5.70;99.90;;;;;;4187122;28;20826;-73
2024/03/04 00:51:44;;;;;;;25.00;11.90;;;5.60;99.90;;;;;;4184510;28;20452;-74
2024/03/04 00:53:46;;;;;;;25.30;12.27;;;5.60;99.90;;;;;;4184638;28;20210;-74
2024/03/04 00:55:49;;;;;;;24.43;12.13;;;5.60;99.90;;;;;;4182969;28;20512;-73
2024/03/04 00:57:50;;;;;;;22.80;11.93;;;5.60;99.90;;;;;;4180838;28;20496;-72
2024/03/04 00:59:54;;;;;;;25.83;12.27;;;5.60;99.90;;;;;;4185504;28;20805;-76
2024/03/04 01:01:56;;;;;;;25.47;12.70;;;5.50;99.90;;;;;;4185319;28;20448;-72
2024/03/04 01:03:58;;;;;;;25.67;12.03;;;5.50;99.90;;;;;;4185446;28;20473;-73
2024/03/04 01:06:00;;;;;;;26.23;12.30;;;5.50;99.90;;;;;;4187933;28;20859;-73
2024/03/04 01:08:02;;;;;;;25.53;12.67;;;5.40;99.90;;;;;;4181732;28;20514;-72
2024/03/04 01:10:05;;;;;;;22.43;11.90;;;5.40;99.90;;;;;;4188459;28;21297;-72
2024/03/04 01:12:07;;;;;;;25.37;12.37;;;5.40;99.90;;;;;;4183505;28;20459;-74
2024/03/04 01:14:09;;;;;;;23.87;12.40;;;5.40;99.90;;;;;;4183035;28;20448;-72
2024/03/04 01:16:12;;;;;;;26.77;13.10;;;5.40;99.90;;;;;;4190867;28;20510;-74
2024/03/04 01:18:14;;;;;;;26.50;12.67;;;5.40;99.90;;;;;;4189108;28;20483;-73
2024/03/04 01:20:17;;;;;;;24.87;13.10;;;5.30;99.90;;;;;;4189785;28;20451;-72
2024/03/04 01:22:20;;;;;;;26.37;12.90;;;5.40;99.90;;;;;;4186154;28;20540;-72
2024/03/04 01:24:21;;;;;;;26.40;11.50;;;5.30;99.90;;;;;;4185142;28;20462;-73
2024/03/04 01:26:23;;;;;;;27.30;13.23;;;5.30;99.90;;;;;;4185335;28;20468;-72
2024/03/04 01:28:25;;;;;;;25.37;12.33;;;5.30;99.90;;;;;;4190655;28;20625;-77
2024/03/04 01:30:26;;;;;;;23.03;12.07;;;5.30;99.90;;;;;;4189736;28;20453;-72
2024/03/04 01:32:30;;;;;;;24.23;11.70;;;5.20;99.90;;;;;;4184076;28;20474;-72
2024/03/04 01:34:32;;;;;;;23.90;11.93;;;5.20;99.90;;;;;;4183560;28;20491;-73
2024/03/04 01:36:33;;;;;;;25.23;11.33;;;5.20;99.90;;;;;;4181244;28;20480;-73
2024/03/04 01:38:36;;;;;;;22.47;11.27;;;5.10;99.90;;;;;;4190033;28;20488;-74
2024/03/04 01:40:37;;;;;;;25.37;12.17;;;5.10;99.90;;;;;;4178496;28;20461;-73
2024/03/04 01:42:40;;;;;;;23.27;11.80;;;5.10;99.90;;;;;;4179895;28;20459;-73
2024/03/04 01:44:42;;;;;;;25.10;11.50;;;5.10;99.90;;;;;;4189762;28;20451;-76
2024/03/04 01:46:45;;;;;;;21.43;10.67;;;5.00;99.90;;;;;;4188084;28;20488;-73
2024/03/04 01:48:52;;;;;;;21.20;11.13;;;5.00;99.90;;;;;;4196829;28;20463;-74
2024/03/04 01:50:55;;;;;;;24.03;11.40;;;5.00;99.90;;;;;;4186109;28;20528;-74
2024/03/04 01:52:58;;;;;;;22.73;11.90;;;4.90;99.90;;;;;;4180380;28;20526;-73
2024/03/04 01:55:00;;;;;;;21.80;11.07;;;4.90;99.90;;;;;;4183692;28;20486;-73
2024/03/04 01:57:03;;;;;;;23.17;10.53;;;4.90;99.90;;;;;;4184127;28;20524;-73
2024/03/04 01:59:05;;;;;;;22.90;11.37;;;4.90;99.90;;;;;;4186801;28;20440;-73
2024/03/04 02:01:08;;;;;;;23.07;11.23;;;4.80;99.90;;;;;;4180806;28;20447;-73
2024/03/04 02:03:13;;;;;;;23.93;11.67;;;4.80;99.90;;;;;;4185343;28;20444;-74
2024/03/04 02:05:20;;;;;;;20.23;10.83;;;4.80;99.90;;;;;;4189292;28;20471;-73
2024/03/04 02:07:28;;;;;;;24.93;11.63;;;4.70;99.90;;;;;;4181708;28;20491;-73
2024/03/04 02:09:31;;;;;;;20.43;10.87;;;4.70;99.90;;;;;;4190124;28;20493;-75
2024/03/04 02:11:34;;;;;;;21.57;10.73;;;4.70;99.90;;;;;;4193345;28;20443;-73
2024/03/04 02:13:37;;;;;;;22.73;11.17;;;4.70;99.90;;;;;;4195377;28;20456;-75
2024/03/04 02:15:39;;;;;;;23.80;11.60;;;4.70;99.90;;;;;;4190102;28;20466;-74
2024/03/04 02:17:42;;;;;;;23.77;11.23;;;4.60;99.90;;;;;;4191849;28;21059;-72
2024/03/04 02:19:45;;;;;;;22.33;11.43;;;4.60;99.90;;;;;;4184104;28;20444;-73
2024/03/04 02:21:55;;;;;;;20.80;10.40;;;4.60;99.90;;;;;;4188915;28;20521;-75
2024/03/04 02:23:59;;;;;;;23.20;11.77;;;4.60;99.90;;;;;;4190249;28;20545;-73
2024/03/04 02:26:00;;;;;;;21.20;10.87;;;4.50;99.90;;;;;;4184097;28;21005;-74
2024/03/04 02:28:02;;;;;;;23.00;11.70;;;4.50;99.90;;;;;;4188415;28;20482;-74
2024/03/04 02:30:07;;;;;;;22.10;11.43;;;4.50;99.90;;;;;;4185803;28;20444;-73
2024/03/04 02:32:09;;;;;;;20.30;10.37;;;4.50;99.90;;;;;;4188845;28;20463;-75
2024/03/04 02:34:13;;;;;;;20.13;10.27;;;4.50;99.90;;;;;;4187169;28;20960;-73
2024/03/04 02:36:15;;;;;;;24.83;11.20;;;4.40;99.90;;;;;;4189372;28;20482;-73
2024/03/04 02:38:17;;;;;;;22.43;11.93;;;4.40;99.90;;;;;;4188777;28;20478;-73
2024/03/04 02:40:21;;;;;;;21.30;10.80;;;4.40;99.90;;;;;;4188229;28;20507;-74
2024/03/04 02:42:23;;;;;;;23.63;10.60;;;4.40;99.90;;;;;;4186311;28;20446;-73
2024/03/04 02:44:25;;;;;;;22.27;11.33;;;4.30;99.90;;;;;;4188510;28;20440;-73
2024/03/04 02:46:26;;;;;;;23.13;11.13;;;4.30;99.90;;;;;;4185323;28;20913;-73
2024/03/04 02:48:30;;;;;;;24.40;11.77;;;4.30;99.90;;;;;;4186184;28;20476;-73
2024/03/04 02:50:33;;;;;;;25.13;11.53;;;4.30;99.90;;;;;;4186424;28;20439;-73
2024/03/04 02:52:34;;;;;;;24.30;12.27;;;4.30;99.90;;;;;;4183705;28;20530;-73
2024/03/04 02:54:37;;;;;;;25.90;12.53;;;4.30;99.90;;;;;;4183697;28;20490;-73
2024/03/04 02:56:40;;;;;;;27.33;12.60;;;4.20;99.90;;;;;;4189860;28;20478;-73
2024/03/04 02:58:42;;;;;;;25.50;12.07;;;4.20;99.90;;;;;;4191851;28;20544;-73
2024/03/04 03:00:44;;;;;;;25.37;12.40;;;4.20;99.90;;;;;;4186498;28;21065;-74
2024/03/04 03:02:45;;;;;;;23.60;11.73;;;4.20;99.90;;;;;;4188712;28;20488;-74
2024/03/04 03:04:47;;;;;;;25.00;11.47;;;4.10;99.90;;;;;;4193307;28;20449;-74
2024/03/04 03:06:49;;;;;;;23.00;11.23;;;4.10;99.90;;;;;;4191123;28;20214;-73
2024/03/04 03:08:51;;;;;;;22.43;10.87;;;4.10;99.90;;;;;;4190685;28;20566;-73
2024/03/04 03:10:53;;;;;;;25.13;12.07;;;4.10;99.90;;;;;;4191320;28;20447;-73
2024/03/04 03:12:55;;;;;;;24.17;11.63;;;4.10;99.90;;;;;;4187186;28;20842;-73
2024/03/04 03:14:58;;;;;;;27.87;12.17;;;4.00;99.90;;;;;;4186949;28;20478;-73
2024/03/04 03:17:00;;;;;;;28.83;11.90;;;4.00;99.90;;;;;;4188448;28;20932;-73
2024/03/04 03:19:02;;;;;;;25.93;11.50;;;4.00;99.90;;;;;;4181347;28;20475;-72
2024/03/04 03:21:04;;;;;;;23.07;11.03;;;4.00;99.90;;;;;;4186624;28;20971;-75
2024/03/04 03:23:06;;;;;;;24.50;12.00;;;3.90;99.90;;;;;;4190623;28;20442;-73
2024/03/04 03:25:09;;;;;;;21.10;11.57;;;3.90;99.90;;;;;;4186686;28;20468;-74
2024/03/04 03:27:11;;;;;;;21.80;10.73;;;3.90;99.90;;;;;;4183956;28;20547;-73
2024/03/04 03:29:14;;;;;;;24.73;11.27;;;3.90;99.90;;;;;;4182982;28;21009;-73
2024/03/04 03:31:19;;;;;;;23.67;11.17;;;3.80;99.90;;;;;;4182808;28;20532;-76
2024/03/04 03:33:21;;;;;;;22.57;11.33;;;3.80;99.90;;;;;;4183985;28;20463;-74
2024/03/04 03:35:23;;;;;;;23.17;11.53;;;3.80;99.90;;;;;;4184715;28;21077;-73
2024/03/04 03:37:25;;;;;;;22.00;11.10;;;3.80;99.90;;;;;;4184871;28;20460;-73
2024/03/04 03:39:27;;;;;;;24.23;11.33;;;3.80;99.90;;;;;;4186444;28;20462;-72
2024/03/04 03:41:29;;;;;;;24.27;11.17;;;3.80;99.90;;;;;;4186466;28;20502;-75
2024/03/04 03:43:31;;;;;;;22.77;11.37;;;3.70;99.90;;;;;;4182705;28;20449;-74
2024/03/04 03:45:34;;;;;;;23.30;11.67;;;3.60;99.90;;;;;;4184548;28;20532;-75
2024/03/04 03:47:36;;;;;;;21.47;11.03;;;3.70;99.90;;;;;;4186173;28;20490;-73
2024/03/04 03:49:38;;;;;;;23.33;11.93;;;3.70;99.90;;;;;;4185418;28;20501;-73
2024/03/04 03:51:40;;;;;;;26.33;12.10;;;3.70;99.90;;;;;;4183327;28;20454;-73
2024/03/04 03:53:42;;;;;;;21.33;10.77;;;3.60;99.90;;;;;;4184856;28;20551;-73
2024/03/04 03:55:44;;;;;;;21.83;11.17;;;3.60;99.90;;;;;;4183373;28;20467;-73
2024/03/04 03:57:46;;;;;;;26.87;12.53;;;3.60;99.90;;;;;;4185543;28;20503;-75
2024/03/04 03:59:48;;;;;;;25.90;11.47;;;3.60;99.90;;;;;;4185338;28;20464;-74
2024/03/04 04:01:52;;;;;;;23.97;11.37;;;3.50;99.90;;;;;;4185184;28;20548;-72
2024/03/04 04:03:53;;;;;;;24.90;12.30;;;3.60;99.90;;;;;;4186541;28;20483;-73
2024/03/04 04:05:55;;;;;;;20.43;10.90;;;3.60;99.90;;;;;;4186511;28;21115;-76
2024/03/04 04:07:57;;;;;;;24.60;11.83;;;3.50;99.90;;;;;;4184010;28;20500;-72
2024/03/04 04:09:59;;;;;;;23.23;11.37;;;3.50;99.90;;;;;;4183423;28;20812;-73
2024/03/04 04:12:00;;;;;;;26.67;12.40;;;3.50;99.90;;;;;;4185388;28;20450;-73
2024/03/04 04:14:02;;;;;;;24.93;12.20;;;3.50;99.90;;;;;;4185125;28;20446;-72
2024/03/04 04:16:05;;;;;;;25.20;11.67;;;3.40;99.90;;;;;;4187131;28;20517;-73
2024/03/04 04:18:08;;;;;;;23.47;12.20;;;3.40;99.90;;;;;;4184654;28;20439;-73
2024/03/04 04:20:11;;;;;;;23.60;11.43;;;3.40;99.90;;;;;;4184727;28;20456;-73
2024/03/04 04:22:16;;;;;;;22.87;10.50;;;3.40;99.90;;;;;;4185180;28;20471;-73
2024/03/04 04:24:18;;;;;;;21.43;11.00;;;3.40;99.90;;;;;;4190554;28;20483;-73
2024/03/04 04:26:24;;;;;;;25.27;10.83;;;3.30;99.90;;;;;;4184073;28;20617;-73
2024/03/04 04:28:26;;;;;;;25.10;12.00;;;3.30;99.90;;;;;;4183925;28;21024;-78
2024/03/04 04:30:28;;;;;;;23.20;11.10;;;3.30;99.90;;;;;;4186572;28;20465;-73
2024/03/04 04:32:30;;;;;;;22.77;10.70;;;3.30;99.90;;;;;;4186543;28;20816;-75
2024/03/04 04:34:33;;;;;;;21.90;10.90;;;3.30;99.90;;;;;;4184445;28;21114;-74
2024/03/04 04:36:36;;;;;;;20.63;10.57;;;3.20;99.90;;;;;;4186671;28;20559;-73
2024/03/04 04:38:37;;;;;;;20.33;10.20;;;3.20;99.90;;;;;;4184763;28;20463;-72
2024/03/04 04:40:39;;;;;;;23.60;11.13;;;3.20;99.90;;;;;;4185105;28;20549;-72
2024/03/04 04:42:40;;;;;;;25.03;10.50;;;3.20;99.90;;;;;;4184415;28;20464;-72
2024/03/04 04:44:42;;;;;;;20.80;10.93;;;3.20;99.90;;;;;;4184875;28;20474;-77
2024/03/04 04:46:44;;;;;;;22.77;10.43;;;3.20;99.90;;;;;;4185001;28;20977;-73
2024/03/04 04:48:46;;;;;;;23.63;11.17;;;3.10;99.90;;;;;;4183185;28;20897;-72
2024/03/04 04:50:49;;;;;;;23.23;10.90;;;3.10;99.90;;;;;;4178948;28;20456;-73
2024/03/04 04:52:50;;;;;;;22.97;11.10;;;3.10;99.90;;;;;;4184125;28;20472;-75
2024/03/04 04:54:52;;;;;;;23.30;10.40;;;3.10;99.90;;;;;;4182520;28;20497;-72
2024/03/04 04:56:56;;;;;;;21.30;10.43;;;3.10;99.90;;;;;;4182624;28;20605;-72
2024/03/04 04:58:58;;;;;;;21.93;10.03;;;3.10;99.90;;;;;;4180762;28;20449;-73
2024/03/04 05:01:00;;;;;;;18.50;10.57;;;3.00;99.90;;;;;;4184203;28;20581;-72
2024/03/04 05:03:02;;;;;;;21.50;10.60;;;3.00;99.90;;;;;;4186302;28;20475;-72
2024/03/04 05:05:04;;;;;;;21.17;10.60;;;3.00;99.90;;;;;;4186933;28;20466;-73
2024/03/04 05:07:08;;;;;;;24.33;10.60;;;3.00;99.90;;;;;;4187783;28;21020;-73
2024/03/04 05:09:13;;;;;;;20.93;11.07;;;3.00;99.90;;;;;;4182135;28;20521;-72
2024/03/04 05:11:15;;;;;;;22.13;10.90;;;3.00;99.90;;;;;;4182058;28;20863;-73
2024/03/04 05:13:17;;;;;;;21.13;10.43;;;3.00;99.90;;;;;;4185962;28;20507;-73
2024/03/04 05:15:19;;;;;;;18.37;10.00;;;3.00;99.90;;;;;;4180956;28;20469;-72
2024/03/04 05:17:21;;;;;;;19.07;9.93;;;3.00;99.90;;;;;;4185037;28;20488;-72
2024/03/04 05:19:25;;;;;;;17.47;10.03;;;3.00;99.90;;;;;;4181946;28;20504;-74
2024/03/04 05:21:27;;;;;;;16.03;8.77;;;2.90;99.90;;;;;;4187196;28;20468;-73
2024/03/04 05:23:30;;;;;;;16.37;8.90;;;3.00;99.90;;;;;;4183458;28;20473;-72
2024/03/04 05:25:32;;;;;;;15.33;8.37;;;3.00;99.90;;;;;;4182604;28;20468;-73
2024/03/04 05:27:34;;;;;;;13.57;7.87;;;2.90;99.90;;;;;;4185071;28;20551;-73
2024/03/04 05:29:35;;;;;;;14.67;7.57;;;2.90;99.90;;;;;;4184022;28;20536;-72
2024/03/04 05:31:51;;;;;;;13.20;7.27;;;2.90;99.90;;;;;;4190379;28;20440;-72
2024/03/04 05:33:53;;;;;;;16.13;7.93;;;2.90;99.90;;;;;;4181443;28;20310;-72
2024/03/04 05:35:55;;;;;;;15.07;8.10;;;2.90;99.90;;;;;;4189004;28;20530;-72
2024/03/04 05:37:57;;;;;;;11.47;7.13;;;2.90;99.90;;;;;;4203359;28;20509;-72
2024/03/04 05:40:00;;;;;;;14.13;7.47;;;2.90;99.90;;;;;;4189987;28;20461;-73
2024/03/04 05:42:02;;;;;;;13.43;7.13;;;2.80;99.90;;;;;;4179643;28;20539;-73
2024/03/04 05:44:06;;;;;;;16.90;7.87;;;2.80;99.90;;;;;;4190648;28;20533;-73
2024/03/04 05:46:08;;;;;;;16.83;7.80;;;2.80;99.90;;;;;;4193551;28;20558;-74
2024/03/04 05:48:10;;;;;;;13.43;7.57;;;2.80;99.90;;;;;;4193654;28;20505;-74
2024/03/04 05:50:14;;;;;;;19.17;9.00;;;2.90;99.90;;;;;;4188855;28;20926;-75
2024/03/04 05:52:17;;;;;;;17.50;9.53;;;2.80;99.90;;;;;;4188807;28;20449;-75
2024/03/04 05:54:19;;;;;;;15.60;8.77;;;2.90;99.90;;;;;;4189744;28;20448;-73
2024/03/04 05:56:22;;;;;;;17.57;9.50;;;2.90;99.90;;;;;;4193973;28;20464;-72
2024/03/04 05:58:26;;;;;;;18.47;9.57;;;2.90;99.90;;;;;;4189547;28;20457;-73
2024/03/04 06:00:30;;;;;;;19.80;9.83;;;2.90;99.90;;;;;;4188742;28;20953;-72
2024/03/04 06:02:32;;;;;;;17.67;9.17;;;2.90;99.90;;;;;;4192567;28;20524;-74
2024/03/04 06:04:34;;;;;;;15.77;9.20;;;2.90;99.90;;;;;;4185466;28;20444;-73
2024/03/04 06:06:36;;;;;;;17.20;8.90;;;2.90;99.90;;;;;;4190591;28;20496;-73
2024/03/04 06:08:37;;;;;;;15.50;8.53;;;2.90;99.90;;;;;;4188931;28;20484;-73
2024/03/04 06:10:41;;;;;;;17.97;9.57;;;2.90;99.90;;;;;;4187850;28;21472;-72
2024/03/04 06:12:45;;;;;;;17.53;8.87;;;2.80;99.90;;;;;;4189756;28;20571;-73
2024/03/04 06:14:47;;;;;;;16.80;8.87;;;2.90;99.90;;;;;;4194049;28;20528;-73
2024/03/04 06:16:48;;;;;;;18.63;9.03;;;2.90;99.90;;;;;;4190374;28;20572;-74
2024/03/04 06:18:50;;;;;;;18.10;9.67;;;2.90;99.90;;;;;;4189800;28;20441;-72
2024/03/04 06:20:52;;;;;;;14.60;8.80;;;2.90;99.90;;;;;;4186409;28;20535;-73
2024/03/04 06:22:54;;;;;;;16.00;8.73;;;2.80;99.90;;;;;;4192761;28;20523;-73
2024/03/04 06:24:56;;;;;;;17.30;9.50;;;2.90;99.90;;;;;;4188122;28;20960;-73
2024/03/04 06:26:58;;;;;;;16.50;8.67;;;2.90;99.90;;;;;;4184280;28;20541;-73
2024/03/04 06:29:01;;;;;;;22.97;8.97;;;2.90;99.90;;;;;;4188727;28;20512;-72
2024/03/04 06:31:03;;;;;;;16.87;8.80;;;3.00;99.90;;;;;;4183522;28;20470;-73
2024/03/04 06:33:08;;;;;;;16.37;8.93;;;3.00;99.90;;;;;;4189812;28;20547;-73
2024/03/04 06:35:10;;;;;;;17.53;8.73;;;3.00;99.90;;;;;;4187517;28;20477;-73
2024/03/04 06:37:13;;;;;;;15.40;8.30;;;3.00;99.90;;;;;;4189362;28;20510;-72
2024/03/04 06:39:20;;;;;;;16.47;8.83;;;3.00;99.90;;;;;;4183111;28;20447;-73
2024/03/04 06:41:21;;;;;;;19.43;10.17;;;3.10;99.90;;;;;;4188912;28;20811;-72
2024/03/04 06:43:23;;;;;;;19.00;9.40;;;3.10;99.90;;;;;;4188349;28;20448;-72
2024/03/04 06:45:26;;;;;;;17.17;8.80;;;3.10;99.90;;;;;;4190076;28;20627;-73
2024/03/04 06:47:28;;;;;;;19.40;9.53;;;3.50;99.90;;;;;;4187094;28;20450;-72
2024/03/04 06:49:30;;;;;;;18.07;9.50;;;3.10;99.90;;;;;;4193383;28;20945;-72
2024/03/04 06:51:35;;;;;;;19.60;9.57;;;3.10;99.90;;;;;;4188692;28;20528;-73
2024/03/04 06:53:38;;;;;;;18.67;9.37;;;3.10;99.90;;;;;;4190783;28;20863;-73
2024/03/04 06:55:40;;;;;;;17.47;9.30;;;3.10;99.90;;;;;;4186250;28;20505;-72
2024/03/04 06:57:42;;;;;;;20.17;10.20;;;3.10;99.90;;;;;;4201077;28;20455;-72
2024/03/04 06:59:44;;;;;;;20.53;10.17;;;3.20;99.90;;;;;;4186019;28;20476;-72
2024/03/04 07:01:47;;;;;;;23.07;11.70;;;3.20;99.90;;;;;;4187675;28;20529;-73
2024/03/04 07:03:49;;;;;;;26.50;12.60;;;3.20;99.90;;;;;;4190265;28;20483;-73
2024/03/04 07:05:51;;;;;;;26.87;12.60;;;3.20;99.90;;;;;;4183623;28;21047;-72
2024/03/04 07:07:53;;;;;;;31.00;13.03;;;3.20;99.90;;;;;;4185761;28;20991;-72
2024/03/04 07:09:55;;;;;;;24.03;12.53;;;3.20;99.90;;;;;;4187095;28;20467;-73
2024/03/04 07:11:57;;;;;;;28.93;13.30;;;3.30;99.90;;;;;;4187808;28;20517;-72
2024/03/04 07:13:59;;;;;;;24.57;12.47;;;3.30;99.90;;;;;;4185069;28;20502;-72
2024/03/04 07:16:00;;;;;;;25.53;12.80;;;3.30;99.90;;;;;;4188344;28;20500;-72
2024/03/04 07:18:03;;;;;;;26.63;13.03;;;3.30;99.90;;;;;;4188801;28;20453;-72
2024/03/04 07:20:09;;;;;;;26.50;13.17;;;3.30;99.90;;;;;;4188499;28;20689;-72
2024/03/04 07:22:11;;;;;;;22.50;11.87;;;3.30;99.90;;;;;;4190728;28;20440;-72
2024/03/04 07:24:15;;;;;;;22.27;11.43;;;3.30;99.90;;;;;;4187522;28;21017;-72
2024/03/04 07:26:20;;;;;;;23.80;12.43;;;3.40;99.90;;;;;;4188809;28;20509;-73
2024/03/04 07:28:22;;;;;;;27.43;14.17;;;3.40;99.90;;;;;;4187117;28;20495;-72
2024/03/04 07:30:24;;;;;;;23.87;13.23;;;3.40;99.90;;;;;;4180174;28;20474;-73
2024/03/04 07:32:27;;;;;;;28.80;12.80;;;3.40;99.90;;;;;;4186761;28;20463;-73
2024/03/04 07:34:30;;;;;;;21.97;11.80;;;3.50;99.90;;;;;;4185722;28;20531;-73
2024/03/04 07:36:32;;;;;;;24.87;12.80;;;3.50;99.90;;;;;;4185059;28;20910;-73
2024/03/04 07:38:35;;;;;;;29.00;12.53;;;3.50;99.90;;;;;;4182146;28;20491;-73
2024/03/04 07:40:39;;;;;;;23.37;12.03;;;3.50;99.90;;;;;;4187735;28;20550;-74
2024/03/04 07:42:41;;;;;;;26.83;13.33;;;3.60;99.90;;;;;;4186494;28;20496;-74
2024/03/04 07:44:44;;;;;;;24.30;12.50;;;3.60;99.90;;;;;;4181304;28;21003;-74
2024/03/04 07:46:47;;;;;;;24.83;12.03;;;3.60;99.90;;;;;;4182643;28;20503;-74
2024/03/04 07:48:49;;;;;;;24.47;13.10;;;3.70;99.90;;;;;;4186773;28;20490;-74
2024/03/04 07:50:52;;;;;;;21.37;11.77;;;3.70;99.90;;;;;;4186900;28;20497;-73
2024/03/04 07:52:54;;;;;;;20.47;11.57;;;3.60;99.90;;;;;;4186267;28;20822;-72
2024/03/04 07:54:56;;;;;;;25.57;13.00;;;3.70;99.90;;;;;;4185383;28;20545;-72
2024/03/04 07:56:58;;;;;;;58.13;11.93;;;3.70;99.90;;;;;;4187447;28;20455;-72
2024/03/04 07:59:00;;;;;;;21.37;11.60;;;3.80;99.90;;;;;;4183503;28;21051;-72
2024/03/04 08:01:02;;;;;;;21.30;11.83;;;3.80;99.90;;;;;;4187124;28;20937;-73
2024/03/04 08:03:06;;;;;;;20.47;11.23;;;3.80;99.90;;;;;;4181097;28;20463;-72
2024/03/04 08:05:09;;;;;;;19.37;10.67;;;3.90;99.90;;;;;;4185816;28;20928;-73
2024/03/04 08:07:13;;;;;;;20.00;10.60;;;3.90;99.90;;;;;;4181936;28;20494;-73
2024/03/04 08:09:15;;;;;;;18.67;10.47;;;4.00;99.90;;;;;;4186148;28;20490;-73
2024/03/04 08:11:16;;;;;;;16.23;9.53;;;4.00;99.90;;;;;;4191660;28;20447;-73
2024/03/04 08:13:18;;;;;;;15.97;9.57;;;4.10;99.90;;;;;;4185450;28;20446;-73
2024/03/04 08:15:20;;;;;;;16.50;9.80;;;4.10;99.90;;;;;;4188047;28;20249;-73
2024/03/04 08:17:22;;;;;;;16.80;9.70;;;4.10;99.90;;;;;;4183903;28;20458;-74
2024/03/04 08:19:24;;;;;;;18.27;10.60;;;4.10;99.90;;;;;;4184823;28;20441;-74
2024/03/04 08:21:29;;;;;;;15.57;9.30;;;4.20;99.90;;;;;;4187486;28;20448;-73
2024/03/04 08:23:32;;;;;;;17.00;9.87;;;4.20;99.90;;;;;;4184177;28;20486;-73
2024/03/04 08:25:34;;;;;;;17.20;9.83;;;4.30;99.90;;;;;;4183833;28;20510;-73
2024/03/04 08:27:36;;;;;;;17.40;9.63;;;4.30;99.90;;;;;;4188906;28;20463;-74
2024/03/04 08:29:37;;;;;;;17.57;9.60;;;4.40;99.90;;;;;;4186036;28;20601;-73
2024/03/04 08:31:39;;;;;;;15.70;9.43;;;4.40;99.90;;;;;;4187879;28;20987;-73
2024/03/04 08:33:41;;;;;;;14.80;8.80;;;4.50;99.90;;;;;;4186251;28;20206;-73
2024/03/04 08:35:41;;;;;;;14.97;8.67;;;4.50;99.90;;;;;;4183682;28;20545;-73
2024/03/04 08:37:44;;;;;;;16.40;9.43;;;4.60;99.90;;;;;;4185482;28;20448;-73
2024/03/04 08:39:48;;;;;;;15.50;9.77;;;4.60;99.90;;;;;;4184101;28;20601;-73
2024/03/04 08:41:49;;;;;;;19.07;10.50;;;4.60;99.90;;;;;;4186620;28;20456;-74
2024/03/04 08:43:51;;;;;;;19.90;10.30;;;4.70;99.90;;;;;;4184385;28;20462;-73
2024/03/04 08:45:53;;;;;;;44.37;12.23;;;4.70;99.90;;;;;;4183971;28;20234;-73
2024/03/04 08:47:55;;;;;;;25.67;11.07;;;4.80;99.90;;;;;;4188803;28;20491;-73
2024/03/04 08:49:57;;;;;;;16.57;9.67;;;4.80;99.90;;;;;;4185085;28;20575;-74
2024/03/04 08:52:01;;;;;;;17.33;10.20;;;4.80;99.90;;;;;;4186415;28;20546;-71
2024/03/04 08:54:03;;;;;;;18.57;10.50;;;4.80;99.90;;;;;;4184661;28;20453;-75
2024/03/04 08:56:07;;;;;;;17.70;9.90;;;4.90;99.90;;;;;;4183720;28;20984;-76
2024/03/04 08:58:12;;;;;;;17.37;10.27;;;4.90;99.90;;;;;;4183080;28;20548;-74
2024/03/04 09:00:15;;;;;;;18.63;10.60;;;5.00;99.90;;;;;;4181982;28;20555;-74
2024/03/04 09:02:17;;;;;;;18.60;10.43;;;5.00;99.90;;;;;;4186523;28;20856;-74
2024/03/04 09:04:20;;;;;;;61.03;12.40;;;5.00;99.90;;;;;;4187910;28;20252;-73
2024/03/04 09:06:25;;;;;;;19.73;10.77;;;5.10;99.90;;;;;;4185175;28;20474;-74
2024/03/04 09:08:27;;;;;;;18.20;10.80;;;5.10;99.90;;;;;;4185131;28;20213;-74
2024/03/04 09:10:30;;;;;;;18.23;10.40;;;5.10;99.90;;;;;;4182476;28;20500;-74
2024/03/04 09:12:35;;;;;;;15.30;9.10;;;5.10;99.90;;;;;;4182616;28;20990;-74
2024/03/04 09:14:36;;;;;;;20.33;10.47;;;5.20;99.90;;;;;;4179331;28;20452;-74
2024/03/04 09:16:38;;;;;;;15.53;9.57;;;5.30;99.90;;;;;;4189877;28;20471;-74
2024/03/04 09:18:40;;;;;;;19.00;11.23;;;5.30;99.90;;;;;;4185343;28;20211;-73
2024/03/04 09:20:42;;;;;;;18.70;10.97;;;5.30;99.90;;;;;;4186163;28;20440;-74
2024/03/04 09:22:44;;;;;;;17.33;10.47;;;5.40;99.90;;;;;;4184175;28;20467;-71
2024/03/04 09:24:46;;;;;;;19.10;10.70;;;5.50;99.90;;;;;;4183934;28;20206;-74
2024/03/04 09:26:48;;;;;;;21.27;11.90;;;5.50;99.90;;;;;;4183747;28;20221;-72
2024/03/04 09:28:52;;;;;;;19.87;10.90;;;5.60;99.90;;;;;;4185138;28;20206;-73
2024/03/04 09:30:54;;;;;;;20.63;11.47;;;5.70;99.90;;;;;;4181561;28;20249;-73
2024/03/04 09:32:56;;;;;;;27.93;12.33;;;5.70;99.90;;;;;;4189716;28;20225;-74
2024/03/04 09:34:58;;;;;;;19.23;10.80;;;5.70;99.90;;;;;;4183548;28;20230;-73
2024/03/04 09:37:01;;;;;;;19.70;11.43;;;5.80;99.90;;;;;;4186528;28;20837;-73
2024/03/04 09:39:05;;;;;;;19.63;11.83;;;5.90;99.90;;;;;;4183140;28;20264;-73
2024/03/04 09:41:06;;;;;;;18.90;11.03;;;5.90;99.90;;;;;;4189201;28;20209;-73
2024/03/04 09:43:11;;;;;;;18.30;10.07;;;6.00;99.90;;;;;;4188243;28;20229;-74
2024/03/04 09:45:14;;;;;;;17.43;10.33;;;6.10;99.90;;;;;;4187203;28;20265;-73
2024/03/04 09:47:18;;;;;;;21.17;10.33;;;6.10;99.90;;;;;;4181606;28;20675;-74
2024/03/04 09:49:23;;;;;;;18.37;10.87;;;6.20;99.90;;;;;;4187155;28;20226;-74
2024/03/04 09:51:29;;;;;;;20.17;11.10;;;6.20;99.90;;;;;;4186554;28;20259;-73
2024/03/04 09:53:35;;;;;;;18.43;11.10;;;6.30;99.90;;;;;;4188750;28;20244;-73
2024/03/04 09:55:37;;;;;;;20.83;11.63;;;6.30;99.90;;;;;;4185762;28;20226;-73
2024/03/04 09:57:40;;;;;;;20.47;12.10;;;6.40;99.90;;;;;;4187546;28;20214;-74
2024/03/04 09:59:44;;;;;;;20.57;11.23;;;6.40;99.90;;;;;;4184683;28;20206;-73
2024/03/04 10:01:47;;;;;;;21.17;11.23;;;6.40;99.90;;;;;;4187026;28;20213;-73
2024/03/04 10:03:51;;;;;;;20.60;11.70;;;6.40;99.90;;;;;;4184477;28;20230;-73
2024/03/04 10:05:54;;;;;;;19.77;11.53;;;6.50;99.90;;;;;;4184959;28;20272;-73
2024/03/04 10:07:55;;;;;;;18.63;10.57;;;6.50;99.90;;;;;;4183876;28;20674;-72
2024/03/04 10:09:57;;;;;;;19.47;10.90;;;6.60;99.90;;;;;;4184233;28;20226;-73
2024/03/04 10:12:02;;;;;;;21.70;11.90;;;6.70;99.90;;;;;;4190509;28;20226;-73
2024/03/04 10:14:04;;;;;;;21.27;11.10;;;6.70;99.90;;;;;;4182783;28;20220;-73
2024/03/04 10:16:09;;;;;;;20.63;11.80;;;6.70;99.90;;;;;;4182576;28;20283;-72
2024/03/04 10:18:13;;;;;;;22.13;11.37;;;6.80;99.90;;;;;;4183180;28;20203;-72
2024/03/04 10:20:15;;;;;;;19.07;10.87;;;6.80;99.90;;;;;;4182699;28;20218;-74
2024/03/04 10:22:17;;;;;;;21.07;11.07;;;6.90;99.90;;;;;;4186401;28;20215;-73
2024/03/04 10:24:19;;;;;;;21.70;11.07;;;7.00;99.90;;;;;;4182721;28;20219;-73
2024/03/04 10:26:20;;;;;;;19.80;10.07;;;7.00;99.90;;;;;;4182162;28;20231;-73
2024/03/04 10:28:37;;;;;;;21.97;11.47;;;7.10;99.90;;;;;;4184266;28;20199;-73
2024/03/04 10:30:39;;;;;;;20.43;11.73;;;7.10;99.90;;;;;;4187420;28;20254;-73